sensor_id;sensor_type;location;lat;lon;timestamp;temperature;humidity
40085;DHT22;25786;51.504;7.344;2023-01-09T00:01:32;9.00;86.70
40085;DHT22;25786;51.504;7.344;2023-01-09T00:03:58;8.90;87.00
40085;DHT22;25786;51.504;7.344;2023-01-09T00:06:24;8.90;86.90
40085;DHT22;25786;51.504;7.344;2023-01-09T00:08:49;9.00;86.60
40085;DHT22;25786;51.504;7.344;2023-01-09T00:11:18;8.80;86.80
40085;DHT22;25786;51.504;7.344;2023-01-09T00:13:43;8.90;86.90
40085;DHT22;25786;51.504;7.344;2023-01-09T00:16:09;9.00;86.90
40085;DHT22;25786;51.504;7.344;2023-01-09T00:18:35;8.90;86.40
40085;DHT22;25786;51.504;7.344;2023-01-09T00:21:01;8.80;86.40
40085;DHT22;25786;51.504;7.344;2023-01-09T00:23:27;8.80;87.00
40085;DHT22;25786;51.504;7.344;2023-01-09T00:26:02;8.80;86.90
40085;DHT22;25786;51.504;7.344;2023-01-09T00:28:28;8.70;87.10
40085;DHT22;25786;51.504;7.344;2023-01-09T00:30:57;8.70;87.10
40085;DHT22;25786;51.504;7.344;2023-01-09T00:33:34;8.60;86.50
40085;DHT22;25786;51.504;7.344;2023-01-09T00:36:02;8.60;86.60
40085;DHT22;25786;51.504;7.344;2023-01-09T00:38:27;8.50;87.20
40085;DHT22;25786;51.504;7.344;2023-01-09T00:40:53;8.50;87.20
40085;DHT22;25786;51.504;7.344;2023-01-09T00:43:19;8.50;87.00
40085;DHT22;25786;51.504;7.344;2023-01-09T00:45:46;8.50;86.90
40085;DHT22;25786;51.504;7.344;2023-01-09T00:48:14;8.40;87.70
40085;DHT22;25786;51.504;7.344;2023-01-09T00:50:40;8.50;87.70
40085;DHT22;25786;51.504;7.344;2023-01-09T00:53:14;8.40;87.50
40085;DHT22;25786;51.504;7.344;2023-01-09T00:55:41;8.40;87.50
40085;DHT22;25786;51.504;7.344;2023-01-09T00:58:06;8.30;87.70
40085;DHT22;25786;51.504;7.344;2023-01-09T01:00:32;8.40;87.70
40085;DHT22;25786;51.504;7.344;2023-01-09T01:02:58;8.30;87.60
40085;DHT22;25786;51.504;7.344;2023-01-09T01:05:23;8.30;87.10
40085;DHT22;25786;51.504;7.344;2023-01-09T01:08:11;8.30;87.30
40085;DHT22;25786;51.504;7.344;2023-01-09T01:10:37;8.20;87.40
40085;DHT22;25786;51.504;7.344;2023-01-09T01:13:02;8.20;87.30
40085;DHT22;25786;51.504;7.344;2023-01-09T01:15:27;8.10;87.40
40085;DHT22;25786;51.504;7.344;2023-01-09T01:17:53;8.10;88.00
40085;DHT22;25786;51.504;7.344;2023-01-09T01:20:19;8.10;88.00
40085;DHT22;25786;51.504;7.344;2023-01-09T01:22:45;8.10;88.20
40085;DHT22;25786;51.504;7.344;2023-01-09T01:25:11;8.10;88.00
40085;DHT22;25786;51.504;7.344;2023-01-09T01:27:36;8.10;88.10
40085;DHT22;25786;51.504;7.344;2023-01-09T01:30:02;8.00;88.20
40085;DHT22;25786;51.504;7.344;2023-01-09T01:32:28;8.10;87.90
40085;DHT22;25786;51.504;7.344;2023-01-09T01:34:53;8.10;87.90
40085;DHT22;25786;51.504;7.344;2023-01-09T01:37:19;8.00;87.80
40085;DHT22;25786;51.504;7.344;2023-01-09T01:39:46;8.10;88.10
40085;DHT22;25786;51.504;7.344;2023-01-09T01:42:12;8.00;87.90
40085;DHT22;25786;51.504;7.344;2023-01-09T01:47:23;8.10;88.10
40085;DHT22;25786;51.504;7.344;2023-01-09T01:49:49;8.10;87.60
40085;DHT22;25786;51.504;7.344;2023-01-09T01:52:15;8.10;87.80
40085;DHT22;25786;51.504;7.344;2023-01-09T01:54:41;8.00;87.30
40085;DHT22;25786;51.504;7.344;2023-01-09T01:57:07;7.90;87.40
40085;DHT22;25786;51.504;7.344;2023-01-09T01:59:36;7.90;87.30
40085;DHT22;25786;51.504;7.344;2023-01-09T02:02:02;7.90;87.00
40085;DHT22;25786;51.504;7.344;2023-01-09T02:04:29;7.90;87.00
40085;DHT22;25786;51.504;7.344;2023-01-09T02:06:55;7.90;87.00
40085;DHT22;25786;51.504;7.344;2023-01-09T02:09:21;7.90;87.10
40085;DHT22;25786;51.504;7.344;2023-01-09T02:11:48;7.90;87.10
40085;DHT22;25786;51.504;7.344;2023-01-09T02:14:16;7.90;87.50
40085;DHT22;25786;51.504;7.344;2023-01-09T02:24:48;7.90;86.70
40085;DHT22;25786;51.504;7.344;2023-01-09T02:32:43;7.80;86.80
40085;DHT22;25786;51.504;7.344;2023-01-09T02:38:02;7.80;86.60
40085;DHT22;25786;51.504;7.344;2023-01-09T02:41:12;7.80;86.80
40085;DHT22;25786;51.504;7.344;2023-01-09T02:43:17;7.80;86.70
40085;DHT22;25786;51.504;7.344;2023-01-09T02:45:43;7.80;86.60
40085;DHT22;25786;51.504;7.344;2023-01-09T02:48:09;7.80;86.90
40085;DHT22;25786;51.504;7.344;2023-01-09T02:51:19;7.80;86.80
40085;DHT22;25786;51.504;7.344;2023-01-09T02:56:34;7.60;87.10
40085;DHT22;25786;51.504;7.344;2023-01-09T03:09:35;7.50;87.50
40085;DHT22;25786;51.504;7.344;2023-01-09T03:12:22;7.60;87.40
40085;DHT22;25786;51.504;7.344;2023-01-09T03:14:49;7.50;87.50
40085;DHT22;25786;51.504;7.344;2023-01-09T03:17:23;7.40;87.50
40085;DHT22;25786;51.504;7.344;2023-01-09T03:19:51;7.50;87.20
40085;DHT22;25786;51.504;7.344;2023-01-09T03:22:17;7.40;87.40
40085;DHT22;25786;51.504;7.344;2023-01-09T03:24:42;7.50;87.50
40085;DHT22;25786;51.504;7.344;2023-01-09T03:27:08;7.50;87.60
40085;DHT22;25786;51.504;7.344;2023-01-09T03:29:33;7.60;87.30
40085;DHT22;25786;51.504;7.344;2023-01-09T03:31:59;7.50;87.30
40085;DHT22;25786;51.504;7.344;2023-01-09T03:34:24;7.50;87.50
40085;DHT22;25786;51.504;7.344;2023-01-09T03:36:50;7.60;87.30
40085;DHT22;25786;51.504;7.344;2023-01-09T03:39:15;7.60;87.50
40085;DHT22;25786;51.504;7.344;2023-01-09T03:41:41;7.70;86.80
40085;DHT22;25786;51.504;7.344;2023-01-09T03:44:06;7.60;86.80
40085;DHT22;25786;51.504;7.344;2023-01-09T03:46:32;7.60;86.90
40085;DHT22;25786;51.504;7.344;2023-01-09T03:48:57;7.70;86.60
40085;DHT22;25786;51.504;7.344;2023-01-09T03:51:23;7.70;86.80
40085;DHT22;25786;51.504;7.344;2023-01-09T03:53:48;7.60;86.90
40085;DHT22;25786;51.504;7.344;2023-01-09T03:56:14;7.70;86.80
40085;DHT22;25786;51.504;7.344;2023-01-09T03:58:39;7.70;86.50
40085;DHT22;25786;51.504;7.344;2023-01-09T04:01:07;7.80;86.60
40085;DHT22;25786;51.504;7.344;2023-01-09T04:03:39;7.70;86.60
40085;DHT22;25786;51.504;7.344;2023-01-09T04:06:05;7.80;86.10
40085;DHT22;25786;51.504;7.344;2023-01-09T04:08:30;7.80;86.40
40085;DHT22;25786;51.504;7.344;2023-01-09T04:10:56;7.80;86.40
40085;DHT22;25786;51.504;7.344;2023-01-09T04:13:21;7.80;85.80
40085;DHT22;25786;51.504;7.344;2023-01-09T04:15:47;7.80;86.00
40085;DHT22;25786;51.504;7.344;2023-01-09T04:18:13;7.80;86.00
40085;DHT22;25786;51.504;7.344;2023-01-09T04:20:38;7.80;85.20
40085;DHT22;25786;51.504;7.344;2023-01-09T04:23:04;7.70;85.90
40085;DHT22;25786;51.504;7.344;2023-01-09T04:25:29;7.80;85.40
40085;DHT22;25786;51.504;7.344;2023-01-09T04:27:55;7.70;85.60
40085;DHT22;25786;51.504;7.344;2023-01-09T04:30:20;7.70;85.10
40085;DHT22;25786;51.504;7.344;2023-01-09T04:32:46;7.60;85.60
40085;DHT22;25786;51.504;7.344;2023-01-09T04:35:11;7.60;85.50
40085;DHT22;25786;51.504;7.344;2023-01-09T04:37:37;7.60;85.20
40085;DHT22;25786;51.504;7.344;2023-01-09T04:40:03;7.60;84.90
40085;DHT22;25786;51.504;7.344;2023-01-09T04:42:35;7.60;84.80
40085;DHT22;25786;51.504;7.344;2023-01-09T04:45:00;7.50;85.00
40085;DHT22;25786;51.504;7.344;2023-01-09T04:47:26;7.50;85.20
40085;DHT22;25786;51.504;7.344;2023-01-09T04:49:51;7.50;85.30
40085;DHT22;25786;51.504;7.344;2023-01-09T04:52:17;7.30;85.20
40085;DHT22;25786;51.504;7.344;2023-01-09T04:54:42;7.30;84.90
40085;DHT22;25786;51.504;7.344;2023-01-09T04:57:08;7.20;85.30
40085;DHT22;25786;51.504;7.344;2023-01-09T04:59:33;7.20;85.10
40085;DHT22;25786;51.504;7.344;2023-01-09T05:01:59;7.10;85.30
40085;DHT22;25786;51.504;7.344;2023-01-09T05:04:24;7.00;85.40
40085;DHT22;25786;51.504;7.344;2023-01-09T05:06:50;7.00;85.60
40085;DHT22;25786;51.504;7.344;2023-01-09T05:09:15;7.00;85.20
40085;DHT22;25786;51.504;7.344;2023-01-09T05:11:41;7.00;85.40
40085;DHT22;25786;51.504;7.344;2023-01-09T05:14:06;7.00;85.30
40085;DHT22;25786;51.504;7.344;2023-01-09T05:16:32;6.90;85.50
40085;DHT22;25786;51.504;7.344;2023-01-09T05:18:57;6.80;85.40
40085;DHT22;25786;51.504;7.344;2023-01-09T05:21:25;6.80;85.50
40085;DHT22;25786;51.504;7.344;2023-01-09T05:23:50;6.80;85.60
40085;DHT22;25786;51.504;7.344;2023-01-09T05:26:18;6.90;85.60
40085;DHT22;25786;51.504;7.344;2023-01-09T05:28:51;6.90;85.50
40085;DHT22;25786;51.504;7.344;2023-01-09T05:31:20;6.80;85.60
40085;DHT22;25786;51.504;7.344;2023-01-09T05:33:46;6.90;85.30
40085;DHT22;25786;51.504;7.344;2023-01-09T05:36:12;6.90;85.40
40085;DHT22;25786;51.504;7.344;2023-01-09T05:38:38;6.80;85.20
40085;DHT22;25786;51.504;7.344;2023-01-09T05:41:04;6.80;84.90
40085;DHT22;25786;51.504;7.344;2023-01-09T05:43:32;6.90;84.70
40085;DHT22;25786;51.504;7.344;2023-01-09T05:45:58;6.90;84.70
40085;DHT22;25786;51.504;7.344;2023-01-09T05:48:26;7.00;85.00
40085;DHT22;25786;51.504;7.344;2023-01-09T05:50:51;7.10;84.50
40085;DHT22;25786;51.504;7.344;2023-01-09T05:53:17;7.10;84.20
40085;DHT22;25786;51.504;7.344;2023-01-09T05:55:42;7.20;84.30
40085;DHT22;25786;51.504;7.344;2023-01-09T05:58:08;7.20;84.60
40085;DHT22;25786;51.504;7.344;2023-01-09T06:00:33;7.20;83.60
40085;DHT22;25786;51.504;7.344;2023-01-09T06:02:59;7.30;83.40
40085;DHT22;25786;51.504;7.344;2023-01-09T06:05:24;7.30;83.60
40085;DHT22;25786;51.504;7.344;2023-01-09T06:07:50;7.30;83.00
40085;DHT22;25786;51.504;7.344;2023-01-09T06:10:18;7.40;82.90
40085;DHT22;25786;51.504;7.344;2023-01-09T06:12:47;7.20;82.00
40085;DHT22;25786;51.504;7.344;2023-01-09T06:15:13;7.30;82.40
40085;DHT22;25786;51.504;7.344;2023-01-09T06:17:40;7.30;82.50
40085;DHT22;25786;51.504;7.344;2023-01-09T06:20:05;7.30;82.00
40085;DHT22;25786;51.504;7.344;2023-01-09T06:22:31;7.40;81.90
40085;DHT22;25786;51.504;7.344;2023-01-09T06:24:56;7.50;81.40
40085;DHT22;25786;51.504;7.344;2023-01-09T06:27:22;7.30;81.80
40085;DHT22;25786;51.504;7.344;2023-01-09T06:29:53;7.30;82.10
40085;DHT22;25786;51.504;7.344;2023-01-09T06:32:19;7.30;81.60
40085;DHT22;25786;51.504;7.344;2023-01-09T06:34:45;7.30;82.20
40085;DHT22;25786;51.504;7.344;2023-01-09T06:37:10;7.30;82.00
40085;DHT22;25786;51.504;7.344;2023-01-09T06:39:36;7.30;82.10
40085;DHT22;25786;51.504;7.344;2023-01-09T06:42:01;7.30;81.80
40085;DHT22;25786;51.504;7.344;2023-01-09T06:44:27;7.30;82.10
40085;DHT22;25786;51.504;7.344;2023-01-09T06:46:52;7.30;82.50
40085;DHT22;25786;51.504;7.344;2023-01-09T06:49:20;7.40;82.40
40085;DHT22;25786;51.504;7.344;2023-01-09T06:51:49;7.40;82.00
40085;DHT22;25786;51.504;7.344;2023-01-09T06:54:18;7.30;82.20
40085;DHT22;25786;51.504;7.344;2023-01-09T06:56:46;7.30;82.50
40085;DHT22;25786;51.504;7.344;2023-01-09T06:59:12;7.30;83.10
40085;DHT22;25786;51.504;7.344;2023-01-09T07:04:21;7.30;84.00
40085;DHT22;25786;51.504;7.344;2023-01-09T07:06:49;7.30;84.60
40085;DHT22;25786;51.504;7.344;2023-01-09T07:09:17;7.20;84.60
40085;DHT22;25786;51.504;7.344;2023-01-09T07:11:43;7.20;84.60
40085;DHT22;25786;51.504;7.344;2023-01-09T07:14:08;7.10;84.70
40085;DHT22;25786;51.504;7.344;2023-01-09T07:16:34;7.10;84.90
40085;DHT22;25786;51.504;7.344;2023-01-09T07:18:59;7.10;84.70
40085;DHT22;25786;51.504;7.344;2023-01-09T07:21:28;7.10;84.80
40085;DHT22;25786;51.504;7.344;2023-01-09T07:23:56;7.10;84.50
40085;DHT22;25786;51.504;7.344;2023-01-09T07:26:21;7.10;84.80
40085;DHT22;25786;51.504;7.344;2023-01-09T07:28:47;7.20;84.90
40085;DHT22;25786;51.504;7.344;2023-01-09T07:31:13;7.20;84.60
40085;DHT22;25786;51.504;7.344;2023-01-09T07:33:38;7.20;84.20
40085;DHT22;25786;51.504;7.344;2023-01-09T07:36:10;7.20;84.30
40085;DHT22;25786;51.504;7.344;2023-01-09T07:38:38;7.20;84.30
40085;DHT22;25786;51.504;7.344;2023-01-09T07:41:04;7.20;83.90
40085;DHT22;25786;51.504;7.344;2023-01-09T07:43:29;7.20;83.60
40085;DHT22;25786;51.504;7.344;2023-01-09T07:45:55;7.20;84.10
40085;DHT22;25786;51.504;7.344;2023-01-09T07:48:21;7.30;83.80
40085;DHT22;25786;51.504;7.344;2023-01-09T07:50:55;7.20;83.60
40085;DHT22;25786;51.504;7.344;2023-01-09T07:53:21;7.20;84.10
40085;DHT22;25786;51.504;7.344;2023-01-09T07:55:47;7.30;83.60
40085;DHT22;25786;51.504;7.344;2023-01-09T07:58:18;7.30;83.60
40085;DHT22;25786;51.504;7.344;2023-01-09T08:00:43;7.30;83.60
40085;DHT22;25786;51.504;7.344;2023-01-09T08:03:09;7.30;83.40
40085;DHT22;25786;51.504;7.344;2023-01-09T08:05:34;7.30;83.20
40085;DHT22;25786;51.504;7.344;2023-01-09T08:08:00;7.30;83.70
40085;DHT22;25786;51.504;7.344;2023-01-09T08:10:26;7.30;83.90
40085;DHT22;25786;51.504;7.344;2023-01-09T08:12:54;7.30;84.10
40085;DHT22;25786;51.504;7.344;2023-01-09T08:15:23;7.30;84.00
40085;DHT22;25786;51.504;7.344;2023-01-09T08:17:51;7.40;84.10
40085;DHT22;25786;51.504;7.344;2023-01-09T08:20:17;7.40;83.70
40085;DHT22;25786;51.504;7.344;2023-01-09T08:22:48;7.40;83.60
40085;DHT22;25786;51.504;7.344;2023-01-09T08:25:18;7.50;83.70
40085;DHT22;25786;51.504;7.344;2023-01-09T08:27:44;7.50;83.30
40085;DHT22;25786;51.504;7.344;2023-01-09T08:30:19;7.60;83.60
40085;DHT22;25786;51.504;7.344;2023-01-09T08:32:52;7.60;83.30
40085;DHT22;25786;51.504;7.344;2023-01-09T08:35:20;7.50;83.40
40085;DHT22;25786;51.504;7.344;2023-01-09T08:37:55;7.50;83.10
40085;DHT22;25786;51.504;7.344;2023-01-09T08:40:26;7.50;83.00
40085;DHT22;25786;51.504;7.344;2023-01-09T08:42:52;7.50;83.40
40085;DHT22;25786;51.504;7.344;2023-01-09T08:45:36;7.50;83.80
40085;DHT22;25786;51.504;7.344;2023-01-09T08:48:20;7.50;84.10
40085;DHT22;25786;51.504;7.344;2023-01-09T08:50:46;7.40;84.80
40085;DHT22;25786;51.504;7.344;2023-01-09T08:53:11;7.40;84.70
40085;DHT22;25786;51.504;7.344;2023-01-09T08:55:37;7.50;84.70
40085;DHT22;25786;51.504;7.344;2023-01-09T08:58:25;7.40;85.10
40085;DHT22;25786;51.504;7.344;2023-01-09T09:00:56;7.50;85.30
40085;DHT22;25786;51.504;7.344;2023-01-09T09:03:23;7.50;85.10
40085;DHT22;25786;51.504;7.344;2023-01-09T09:05:49;7.50;84.90
40085;DHT22;25786;51.504;7.344;2023-01-09T09:08:14;7.50;85.30
40085;DHT22;25786;51.504;7.344;2023-01-09T09:10:40;7.50;85.10
40085;DHT22;25786;51.504;7.344;2023-01-09T09:13:09;7.60;85.00
40085;DHT22;25786;51.504;7.344;2023-01-09T09:15:34;7.60;85.00
40085;DHT22;25786;51.504;7.344;2023-01-09T09:18:03;7.70;85.00
40085;DHT22;25786;51.504;7.344;2023-01-09T09:20:32;7.60;84.80
40085;DHT22;25786;51.504;7.344;2023-01-09T09:23:04;7.60;85.30
40085;DHT22;25786;51.504;7.344;2023-01-09T09:25:30;7.60;86.00
40085;DHT22;25786;51.504;7.344;2023-01-09T09:28:02;7.60;85.80
40085;DHT22;25786;51.504;7.344;2023-01-09T09:30:28;7.60;86.00
40085;DHT22;25786;51.504;7.344;2023-01-09T09:32:54;7.60;86.50
40085;DHT22;25786;51.504;7.344;2023-01-09T09:35:20;7.50;86.60
40085;DHT22;25786;51.504;7.344;2023-01-09T09:37:53;7.50;86.70
40085;DHT22;25786;51.504;7.344;2023-01-09T09:43:43;7.40;87.20
40085;DHT22;25786;51.504;7.344;2023-01-09T09:46:35;7.50;87.40
40085;DHT22;25786;51.504;7.344;2023-01-09T09:49:15;7.50;87.90
40085;DHT22;25786;51.504;7.344;2023-01-09T09:54:20;7.40;87.70
40085;DHT22;25786;51.504;7.344;2023-01-09T09:56:53;7.40;88.00
40085;DHT22;25786;51.504;7.344;2023-01-09T09:59:20;7.50;87.90
40085;DHT22;25786;51.504;7.344;2023-01-09T10:01:50;7.50;88.10
40085;DHT22;25786;51.504;7.344;2023-01-09T10:04:18;7.50;87.90
40085;DHT22;25786;51.504;7.344;2023-01-09T10:07:07;7.40;87.80
40085;DHT22;25786;51.504;7.344;2023-01-09T10:14:28;7.50;88.10
40085;DHT22;25786;51.504;7.344;2023-01-09T10:35:18;7.60;87.60
40085;DHT22;25786;51.504;7.344;2023-01-09T10:37:47;7.60;88.00
40085;DHT22;25786;51.504;7.344;2023-01-09T10:40:53;7.70;88.20
40085;DHT22;25786;51.504;7.344;2023-01-09T10:50:53;7.90;87.30
40085;DHT22;25786;51.504;7.344;2023-01-09T10:53:20;7.90;87.10
40085;DHT22;25786;51.504;7.344;2023-01-09T10:55:46;8.10;87.10
40085;DHT22;25786;51.504;7.344;2023-01-09T10:58:15;8.30;87.30
40085;DHT22;25786;51.504;7.344;2023-01-09T11:00:50;8.40;86.60
40085;DHT22;25786;51.504;7.344;2023-01-09T11:03:21;8.50;85.80
40085;DHT22;25786;51.504;7.344;2023-01-09T11:05:51;8.50;85.80
40085;DHT22;25786;51.504;7.344;2023-01-09T11:08:20;8.50;85.30
40085;DHT22;25786;51.504;7.344;2023-01-09T11:10:48;8.40;85.30
40085;DHT22;25786;51.504;7.344;2023-01-09T11:15:42;8.40;84.80
40085;DHT22;25786;51.504;7.344;2023-01-09T11:18:18;8.40;84.10
40085;DHT22;25786;51.504;7.344;2023-01-09T11:20:44;8.50;83.20
40085;DHT22;25786;51.504;7.344;2023-01-09T11:23:26;8.50;84.00
40085;DHT22;25786;51.504;7.344;2023-01-09T11:25:53;8.50;83.70
40085;DHT22;25786;51.504;7.344;2023-01-09T11:28:19;8.50;83.60
40085;DHT22;25786;51.504;7.344;2023-01-09T11:33:23;8.70;83.00
40085;DHT22;25786;51.504;7.344;2023-01-09T11:38:21;8.80;81.70
40085;DHT22;25786;51.504;7.344;2023-01-09T11:40:49;8.80;82.20
40085;DHT22;25786;51.504;7.344;2023-01-09T11:43:17;8.80;81.30
40085;DHT22;25786;51.504;7.344;2023-01-09T11:45:45;8.70;81.20
40085;DHT22;25786;51.504;7.344;2023-01-09T11:48:18;8.70;81.70
40085;DHT22;25786;51.504;7.344;2023-01-09T11:50:54;8.80;81.30
40085;DHT22;25786;51.504;7.344;2023-01-09T11:53:20;8.70;81.60
40085;DHT22;25786;51.504;7.344;2023-01-09T11:55:46;8.70;80.90
40085;DHT22;25786;51.504;7.344;2023-01-09T11:58:15;8.70;81.00
40085;DHT22;25786;51.504;7.344;2023-01-09T12:00:47;8.70;81.10
40085;DHT22;25786;51.504;7.344;2023-01-09T12:03:31;8.70;81.50
40085;DHT22;25786;51.504;7.344;2023-01-09T12:06:11;8.70;80.90
40085;DHT22;25786;51.504;7.344;2023-01-09T12:08:44;8.80;81.80
40085;DHT22;25786;51.504;7.344;2023-01-09T12:16:42;8.80;82.50
40085;DHT22;25786;51.504;7.344;2023-01-09T12:27:24;8.50;83.80
40085;DHT22;25786;51.504;7.344;2023-01-09T12:32:49;8.40;84.80
40085;DHT22;25786;51.504;7.344;2023-01-09T12:35:32;8.40;85.30
40085;DHT22;25786;51.504;7.344;2023-01-09T12:38:07;8.50;85.50
40085;DHT22;25786;51.504;7.344;2023-01-09T12:43:36;8.40;85.20
40085;DHT22;25786;51.504;7.344;2023-01-09T12:46:19;8.50;85.60
40085;DHT22;25786;51.504;7.344;2023-01-09T12:54:02;8.30;85.90
40085;DHT22;25786;51.504;7.344;2023-01-09T12:56:33;8.30;85.60
40085;DHT22;25786;51.504;7.344;2023-01-09T12:59:04;8.30;86.00
40085;DHT22;25786;51.504;7.344;2023-01-09T13:01:32;8.20;86.50
40085;DHT22;25786;51.504;7.344;2023-01-09T13:06:27;8.20;86.90
40085;DHT22;25786;51.504;7.344;2023-01-09T13:08:57;8.20;87.00
40085;DHT22;25786;51.504;7.344;2023-01-09T13:11:39;8.20;86.50
40085;DHT22;25786;51.504;7.344;2023-01-09T13:14:11;8.20;87.00
40085;DHT22;25786;51.504;7.344;2023-01-09T13:16:41;8.30;86.30
40085;DHT22;25786;51.504;7.344;2023-01-09T13:19:12;8.20;86.10
40085;DHT22;25786;51.504;7.344;2023-01-09T13:21:39;8.30;85.50
40085;DHT22;25786;51.504;7.344;2023-01-09T13:24:13;8.10;86.00
40085;DHT22;25786;51.504;7.344;2023-01-09T13:26:47;8.10;86.20
40085;DHT22;25786;51.504;7.344;2023-01-09T13:34:59;8.30;84.80
40085;DHT22;25786;51.504;7.344;2023-01-09T13:42:54;8.20;84.10
40085;DHT22;25786;51.504;7.344;2023-01-09T13:45:20;8.10;84.10
40085;DHT22;25786;51.504;7.344;2023-01-09T13:47:57;8.10;84.80
40085;DHT22;25786;51.504;7.344;2023-01-09T13:50:32;8.10;84.60
40085;DHT22;25786;51.504;7.344;2023-01-09T13:53:02;8.10;84.70
40085;DHT22;25786;51.504;7.344;2023-01-09T14:01:03;8.10;84.50
40085;DHT22;25786;51.504;7.344;2023-01-09T14:03:30;8.10;84.50
40085;DHT22;25786;51.504;7.344;2023-01-09T14:08:23;8.20;83.60
40085;DHT22;25786;51.504;7.344;2023-01-09T14:10:51;8.20;83.40
40085;DHT22;25786;51.504;7.344;2023-01-09T14:15:43;8.10;84.10
40085;DHT22;25786;51.504;7.344;2023-01-09T14:20:43;8.20;83.60
40085;DHT22;25786;51.504;7.344;2023-01-09T14:23:23;8.20;83.80
40085;DHT22;25786;51.504;7.344;2023-01-09T14:25:51;8.20;83.90
40085;DHT22;25786;51.504;7.344;2023-01-09T14:28:36;8.20;83.60
40085;DHT22;25786;51.504;7.344;2023-01-09T14:31:02;8.20;83.70
40085;DHT22;25786;51.504;7.344;2023-01-09T14:33:28;8.10;83.80
40085;DHT22;25786;51.504;7.344;2023-01-09T14:38:51;8.10;84.10
40085;DHT22;25786;51.504;7.344;2023-01-09T14:44:27;8.00;84.20
40085;DHT22;25786;51.504;7.344;2023-01-09T14:46:53;8.00;84.60
40085;DHT22;25786;51.504;7.344;2023-01-09T14:49:33;8.00;84.30
40085;DHT22;25786;51.504;7.344;2023-01-09T14:52:02;8.00;84.60
40085;DHT22;25786;51.504;7.344;2023-01-09T14:54:37;8.00;84.10
40085;DHT22;25786;51.504;7.344;2023-01-09T14:57:21;7.90;84.50
40085;DHT22;25786;51.504;7.344;2023-01-09T14:59:53;8.00;84.60
40085;DHT22;25786;51.504;7.344;2023-01-09T15:02:19;7.90;85.20
40085;DHT22;25786;51.504;7.344;2023-01-09T15:04:45;7.90;86.00
40085;DHT22;25786;51.504;7.344;2023-01-09T15:07:20;7.90;85.60
40085;DHT22;25786;51.504;7.344;2023-01-09T15:09:47;7.90;85.90
40085;DHT22;25786;51.504;7.344;2023-01-09T15:12:15;7.90;86.20
40085;DHT22;25786;51.504;7.344;2023-01-09T15:14:42;7.90;86.40
40085;DHT22;25786;51.504;7.344;2023-01-09T15:20:07;7.70;85.70
40085;DHT22;25786;51.504;7.344;2023-01-09T15:22:38;7.80;85.70
40085;DHT22;25786;51.504;7.344;2023-01-09T15:27:45;7.80;85.50
40085;DHT22;25786;51.504;7.344;2023-01-09T15:30:16;7.80;85.50
40085;DHT22;25786;51.504;7.344;2023-01-09T15:32:46;7.90;85.00
40085;DHT22;25786;51.504;7.344;2023-01-09T15:35:13;7.90;85.10
40085;DHT22;25786;51.504;7.344;2023-01-09T15:37:38;7.90;85.00
40085;DHT22;25786;51.504;7.344;2023-01-09T15:40:05;7.90;85.00
40085;DHT22;25786;51.504;7.344;2023-01-09T15:42:32;7.90;84.90
40085;DHT22;25786;51.504;7.344;2023-01-09T15:45:21;7.80;85.20
40085;DHT22;25786;51.504;7.344;2023-01-09T15:47:47;7.90;84.80
40085;DHT22;25786;51.504;7.344;2023-01-09T15:50:13;7.80;85.40
40085;DHT22;25786;51.504;7.344;2023-01-09T15:52:39;7.80;85.00
40085;DHT22;25786;51.504;7.344;2023-01-09T15:55:14;7.80;84.80
40085;DHT22;25786;51.504;7.344;2023-01-09T15:57:50;7.80;84.60
40085;DHT22;25786;51.504;7.344;2023-01-09T16:03:15;7.80;85.20
40085;DHT22;25786;51.504;7.344;2023-01-09T16:05:42;7.80;85.50
40085;DHT22;25786;51.504;7.344;2023-01-09T16:08:17;7.70;85.60
40085;DHT22;25786;51.504;7.344;2023-01-09T16:10:55;7.70;85.60
40085;DHT22;25786;51.504;7.344;2023-01-09T16:13:28;7.70;86.00
40085;DHT22;25786;51.504;7.344;2023-01-09T16:15:56;7.60;86.30
40085;DHT22;25786;51.504;7.344;2023-01-09T16:18:29;7.60;86.10
40085;DHT22;25786;51.504;7.344;2023-01-09T16:23:51;7.80;85.90
40085;DHT22;25786;51.504;7.344;2023-01-09T16:26:27;7.70;85.80
40085;DHT22;25786;51.504;7.344;2023-01-09T16:31:51;7.70;85.30
40085;DHT22;25786;51.504;7.344;2023-01-09T16:34:28;7.60;85.70
40085;DHT22;25786;51.504;7.344;2023-01-09T16:36:54;7.70;85.90
40085;DHT22;25786;51.504;7.344;2023-01-09T16:39:28;7.60;85.70
40085;DHT22;25786;51.504;7.344;2023-01-09T16:41:57;7.60;86.20
40085;DHT22;25786;51.504;7.344;2023-01-09T16:44:41;7.60;85.90
40085;DHT22;25786;51.504;7.344;2023-01-09T16:47:12;7.60;86.10
40085;DHT22;25786;51.504;7.344;2023-01-09T16:49:41;7.60;86.30
40085;DHT22;25786;51.504;7.344;2023-01-09T16:52:13;7.60;86.10
40085;DHT22;25786;51.504;7.344;2023-01-09T16:54:49;7.60;86.30
40085;DHT22;25786;51.504;7.344;2023-01-09T16:57:15;7.50;86.40
40085;DHT22;25786;51.504;7.344;2023-01-09T16:59:46;7.60;86.30
40085;DHT22;25786;51.504;7.344;2023-01-09T17:02:17;7.60;86.30
40085;DHT22;25786;51.504;7.344;2023-01-09T17:04:43;7.50;86.50
40085;DHT22;25786;51.504;7.344;2023-01-09T17:07:27;7.50;86.50
40085;DHT22;25786;51.504;7.344;2023-01-09T17:09:55;7.60;86.60
40085;DHT22;25786;51.504;7.344;2023-01-09T17:12:22;7.60;86.60
40085;DHT22;25786;51.504;7.344;2023-01-09T17:14:53;7.50;86.50
40085;DHT22;25786;51.504;7.344;2023-01-09T17:17:19;7.40;86.90
40085;DHT22;25786;51.504;7.344;2023-01-09T17:19:50;7.40;87.40
40085;DHT22;25786;51.504;7.344;2023-01-09T17:22:16;7.40;87.50
40085;DHT22;25786;51.504;7.344;2023-01-09T17:24:41;7.30;87.50
40085;DHT22;25786;51.504;7.344;2023-01-09T17:27:30;7.30;88.10
40085;DHT22;25786;51.504;7.344;2023-01-09T17:30:18;7.30;88.30
40085;DHT22;25786;51.504;7.344;2023-01-09T17:32:47;7.30;88.30
40085;DHT22;25786;51.504;7.344;2023-01-09T17:35:30;7.20;88.60
40085;DHT22;25786;51.504;7.344;2023-01-09T17:37:55;7.30;88.40
40085;DHT22;25786;51.504;7.344;2023-01-09T17:40:23;7.30;88.60
40085;DHT22;25786;51.504;7.344;2023-01-09T17:42:52;7.20;88.70
40085;DHT22;25786;51.504;7.344;2023-01-09T17:45:20;7.30;88.70
40085;DHT22;25786;51.504;7.344;2023-01-09T17:47:46;7.20;88.90
40085;DHT22;25786;51.504;7.344;2023-01-09T17:50:16;7.30;88.90
40085;DHT22;25786;51.504;7.344;2023-01-09T17:52:48;7.30;88.90
40085;DHT22;25786;51.504;7.344;2023-01-09T17:55:13;7.30;88.90
40085;DHT22;25786;51.504;7.344;2023-01-09T17:57:44;7.30;88.80
40085;DHT22;25786;51.504;7.344;2023-01-09T18:00:18;7.40;89.00
40085;DHT22;25786;51.504;7.344;2023-01-09T18:02:50;7.40;88.90
40085;DHT22;25786;51.504;7.344;2023-01-09T18:05:16;7.40;88.70
40085;DHT22;25786;51.504;7.344;2023-01-09T18:07:42;7.30;88.80
40085;DHT22;25786;51.504;7.344;2023-01-09T18:10:12;7.30;88.80
40085;DHT22;25786;51.504;7.344;2023-01-09T18:12:38;7.30;88.70
40085;DHT22;25786;51.504;7.344;2023-01-09T18:15:03;7.30;88.80
40085;DHT22;25786;51.504;7.344;2023-01-09T18:17:29;7.30;88.50
40085;DHT22;25786;51.504;7.344;2023-01-09T18:19:54;7.20;88.30
40085;DHT22;25786;51.504;7.344;2023-01-09T18:22:20;7.20;88.20
40085;DHT22;25786;51.504;7.344;2023-01-09T18:24:48;7.30;88.10
40085;DHT22;25786;51.504;7.344;2023-01-09T18:27:19;7.30;87.90